Time;durP1;ratioP1;P1;durP2;ratioP2;P2;SDS_P1;SDS_P2;PMS_P1;PMS_P2;Temp;Humidity;BMP_temperature;BMP_pressure;BME280_temperature;BME280_humidity;BME280_pressure;Samples;Min_cycle;Max_cycle;Signal;HPM_P1;HPM_P2
2023/04/02 00:01:07;;;;;;;;;;;;;;;;;;6194370;23;19926;-87
2023/04/02 00:04:02;;;;;;;;;;;;;;;;;;6140040;23;19924;-86
2023/04/02 00:06:39;;;;;;;;;;;;;;;;;;6138917;23;19924;-87
2023/04/02 00:09:20;;;;;;;;;;;;;;;;;;6174750;23;19930;-88
2023/04/02 00:11:53;;;;;;;;;;;;;;;;;;6214104;23;19934;-87
2023/04/02 00:14:23;;;;;;;;;;;;;;;;;;6181863;23;19919;-86
2023/04/02 00:16:53;;;;;;;;;;;;;;;;;;6181182;23;19904;-89
2023/04/02 00:19:23;;;;;;;;;;;;;;;;;;6176966;23;19920;-88
2023/04/02 00:21:52;;;;;;;;;;;;;;;;;;6170978;23;19920;-86
2023/04/02 00:24:22;;;;;;;;;;;;;;;;;;6170584;23;19946;-87
2023/04/02 00:26:50;;;;;;;;;;;;;;;;;;6202902;23;19947;-86
2023/04/02 00:29:17;;;;;;;;;;;;;;;;;;6168489;23;19931;-86
2023/04/02 00:31:46;;;;;;;;;;;;;;;;;;6168001;23;19924;-87
2023/04/02 00:34:17;;;;;;;;;;;;;;;;;;6169637;23;20362;-89
2023/04/02 00:36:45;;;;;;;;;;;;;;;;;;6166649;23;19924;-88
2023/04/02 00:39:17;;;;;;;;;;;;;;;;;;6168859;23;19934;-89
2023/04/02 00:41:46;;;;;;;;;;;;;;;;;;6167181;23;19920;-88
2023/04/02 00:44:15;;;;;;;;;;;;;;;;;;6226177;22;19926;-88
2023/04/02 00:46:48;;;;;;;;;;;;;;;;;;6253536;22;19919;-86
2023/04/02 00:49:18;;;;;;;;;;;;;;;;;;6239902;22;19919;-89
2023/04/02 00:51:55;;;;;;;;;;;;;;;;;;6231104;22;19919;-89
2023/04/02 00:54:24;;;;;;;;;;;;;;;;;;6228857;22;20271;-87
2023/04/02 00:56:52;;;;;;;;;;;;;;;;;;6230245;22;19919;-87
2023/04/02 00:59:25;;;;;;;;;;;;;;;;;;6261579;22;19919;-89
2023/04/02 01:01:54;;;;;;;;;;;;;;;;;;6228510;22;19919;-88
2023/04/02 01:04:32;;;;;;;;;;;;;;;;;;6229372;22;20251;-87
2023/04/02 01:07:08;;;;;;;;;;;;;;;;;;6230296;22;19919;-89
2023/04/02 01:09:50;;;;;;;;;;;;;;;;;;6227951;22;19919;-86
2023/04/02 01:12:27;;;;;;;;;;;;;;;;;;6229051;22;19920;-88
2023/04/02 01:14:55;;;;;;;;;;;;;;;;;;6227547;22;19927;-88
2023/04/02 01:17:41;;;;;;;;;;;;;;;;;;6228529;22;19920;-87
2023/04/02 01:20:45;;;;;;;;;;;;;;;;;;6232554;22;19919;-88
2023/04/02 01:23:15;;;;;;;;;;;;;;;;;;6228427;22;19919;-89
2023/04/02 01:25:46;;;;;;;;;;;;;;;;;;6226918;22;19929;-87
2023/04/02 01:28:18;;;;;;;;;;;;;;;;;;6253212;22;19919;-87
2023/04/02 01:30:47;;;;;;;;;;;;;;;;;;6226916;22;19919;-88
2023/04/02 01:33:16;;;;;;;;;;;;;;;;;;6228890;22;19919;-88
2023/04/02 01:35:47;;;;;;;;;;;;;;;;;;6227742;22;19923;-86
2023/04/02 01:38:18;;;;;;;;;;;;;;;;;;6227370;22;19919;-87
2023/04/02 01:40:45;;;;;;;;;;;;;;;;;;6227404;22;19919;-88
2023/04/02 01:43:15;;;;;;;;;;;;;;;;;;6226973;22;20390;-89
2023/04/02 01:45:47;;;;;;;;;;;;;;;;;;6253246;22;20274;-88
2023/04/02 01:48:16;;;;;;;;;;;;;;;;;;6226715;22;19926;-88
2023/04/02 01:50:46;;;;;;;;;;;;;;;;;;6228338;22;19919;-87
2023/04/02 01:53:25;;;;;;;;;;;;;;;;;;;;;
2023/04/02 01:55:53;;;;;;;;;;;;;;;;;;6225184;22;19930;-89
2023/04/02 01:58:22;;;;;;;;;;;;;;;;;;6224758;22;19919;-86
2023/04/02 02:00:51;;;;;;;;;;;;;;;;;;6223729;22;19919;-88
2023/04/02 02:03:22;;;;;;;;;;;;;;;;;;6223353;22;19919;-87
2023/04/02 02:05:52;;;;;;;;;;;;;;;;;;6224161;22;19926;-86
2023/04/02 02:08:30;;;;;;;;;;;;;;;;;;6224480;22;20263;-88
2023/04/02 02:11:00;;;;;;;;;;;;;;;;;;6223242;22;19938;-86
2023/04/02 02:13:28;;;;;;;;;;;;;;;;;;6223293;22;19930;-86
2023/04/02 02:15:56;;;;;;;;;;;;;;;;;;6222708;22;19927;-88
2023/04/02 02:18:27;;;;;;;;;;;;;;;;;;6224033;22;19942;-89
2023/04/02 02:21:00;;;;;;;;;;;;;;;;;;6261221;22;19930;-87
2023/04/02 02:23:31;;;;;;;;;;;;;;;;;;6225104;22;19923;-87
2023/04/02 02:25:58;;;;;;;;;;;;;;;;;;6228042;22;19919;-88
2023/04/02 02:28:28;;;;;;;;;;;;;;;;;;6226633;22;19919;-88
2023/04/02 02:30:55;;;;;;;;;;;;;;;;;;6226551;22;19942;-87
2023/04/02 02:33:25;;;;;;;;;;;;;;;;;;6225559;22;19942;-89
2023/04/02 02:36:04;;;;;;;;;;;;;;;;;;6228636;22;20456;-88
2023/04/02 02:38:45;;;;;;;;;;;;;;;;;;6229037;22;19926;-89
2023/04/02 02:41:25;;;;;;;;;;;;;;;;;;6275184;22;19926;-88
2023/04/02 02:43:56;;;;;;;;;;;;;;;;;;6225494;22;19919;-87
2023/04/02 02:46:24;;;;;;;;;;;;;;;;;;6225745;22;19934;-89
2023/04/02 02:48:52;;;;;;;;;;;;;;;;;;6224724;22;19919;-89
2023/04/02 02:51:31;;;;;;;;;;;;;;;;;;6224758;22;19919;-89
2023/04/02 02:54:12;;;;;;;;;;;;;;;;;;6251535;22;19919;-89
2023/04/02 02:56:46;;;;;;;;;;;;;;;;;;6225321;22;19923;-87
2023/04/02 02:59:14;;;;;;;;;;;;;;;;;;6226539;22;19919;-89
2023/04/02 03:01:47;;;;;;;;;;;;;;;;;;6225621;22;19919;-89
2023/04/02 03:04:21;;;;;;;;;;;;;;;;;;6225413;22;19919;-87
2023/04/02 03:06:51;;;;;;;;;;;;;;;;;;6225215;22;19919;-87
2023/04/02 03:09:23;;;;;;;;;;;;;;;;;;6227074;22;19923;-89
2023/04/02 03:11:53;;;;;;;;;;;;;;;;;;6226032;22;19923;-89
2023/04/02 03:14:25;;;;;;;;;;;;;;;;;;6255597;22;19942;-87
2023/04/02 03:16:55;;;;;;;;;;;;;;;;;;6285512;22;19919;-88
2023/04/02 03:19:24;;;;;;;;;;;;;;;;;;6226491;22;19919;-87
2023/04/02 03:21:55;;;;;;;;;;;;;;;;;;6225755;22;19924;-88
2023/04/02 03:24:24;;;;;;;;;;;;;;;;;;6225613;22;20460;-89
2023/04/02 03:26:58;;;;;;;;;;;;;;;;;;6227117;22;19926;-88
2023/04/02 03:29:31;;;;;;;;;;;;;;;;;;6224709;22;19927;-89
2023/04/02 03:32:00;;;;;;;;;;;;;;;;;;6262258;22;19963;-88
2023/04/02 03:34:31;;;;;;;;;;;;;;;;;;6251008;22;19923;-90
2023/04/02 03:37:02;;;;;;;;;;;;;;;;;;6225243;22;19930;-87
2023/04/02 03:39:31;;;;;;;;;;;;;;;;;;6226777;22;19923;-89
2023/04/02 03:42:03;;;;;;;;;;;;;;;;;;6251491;22;19929;-88
2023/04/02 03:44:32;;;;;;;;;;;;;;;;;;6251583;22;19920;-90
2023/04/02 03:47:01;;;;;;;;;;;;;;;;;;6225892;22;19930;-88
2023/04/02 03:49:36;;;;;;;;;;;;;;;;;;6228907;22;20373;-89
2023/04/02 03:52:09;;;;;;;;;;;;;;;;;;6230221;22;19920;-88
2023/04/02 03:54:41;;;;;;;;;;;;;;;;;;6230678;22;19923;-89
2023/04/02 03:57:09;;;;;;;;;;;;;;;;;;6225511;22;19926;-85
2023/04/02 03:59:38;;;;;;;;;;;;;;;;;;6157001;23;19929;-87
2023/04/02 04:02:11;;;;;;;;;;;;;;;;;;6156023;23;19920;-87
2023/04/02 04:04:38;;;;;;;;;;;;;;;;;;6166804;23;19921;-87
2023/04/02 04:07:09;;;;;;;;;;;;;;;;;;6130836;23;20212;-87
2023/04/02 04:09:36;;;;;;;;;;;;;;;;;;6156334;23;19920;-87
2023/04/02 04:12:08;;;;;;;;;;;;;;;;;;6156375;23;20252;-87
2023/04/02 04:14:38;;;;;;;;;;;;;;;;;;6190923;23;20356;-87
2023/04/02 04:17:12;;;;;;;;;;;;;;;;;;6132787;23;20364;-87
2023/04/02 04:19:44;;;;;;;;;;;;;;;;;;6166612;23;19943;-86
2023/04/02 04:22:16;;;;;;;;;;;;;;;;;;6166480;23;19928;-87
2023/04/02 04:24:46;;;;;;;;;;;;;;;;;;6132613;23;19928;-87
2023/04/02 04:27:19;;;;;;;;;;;;;;;;;;6164219;23;19920;-87
2023/04/02 04:29:49;;;;;;;;;;;;;;;;;;6131771;23;19921;-87
2023/04/02 04:32:26;;;;;;;;;;;;;;;;;;6193769;23;19927;-88
2023/04/02 04:34:55;;;;;;;;;;;;;;;;;;6168607;23;19920;-87
2023/04/02 04:37:32;;;;;;;;;;;;;;;;;;6132830;23;20333;-87
2023/04/02 04:40:04;;;;;;;;;;;;;;;;;;6168077;23;20330;-87
2023/04/02 04:42:32;;;;;;;;;;;;;;;;;;6168040;23;19926;-87
2023/04/02 04:45:00;;;;;;;;;;;;;;;;;;6156850;23;19921;-87
2023/04/02 04:47:32;;;;;;;;;;;;;;;;;;6159052;23;19930;-87
2023/04/02 04:50:01;;;;;;;;;;;;;;;;;;6158000;23;19920;-87
2023/04/02 04:52:34;;;;;;;;;;;;;;;;;;6157820;23;19921;-87
2023/04/02 04:55:00;;;;;;;;;;;;;;;;;;6167404;23;19978;-87
2023/04/02 04:57:30;;;;;;;;;;;;;;;;;;6134067;23;20259;-87
2023/04/02 04:59:59;;;;;;;;;;;;;;;;;;6132518;23;19921;-87
2023/04/02 05:02:28;;;;;;;;;;;;;;;;;;6167731;23;19920;-87
2023/04/02 05:04:55;;;;;;;;;;;;;;;;;;6181926;23;19920;-87
2023/04/02 05:07:25;;;;;;;;;;;;;;;;;;6183210;23;19920;-87
2023/04/02 05:09:55;;;;;;;;;;;;;;;;;;6180781;23;20253;-87
2023/04/02 05:12:26;;;;;;;;;;;;;;;;;;6181769;23;19935;-87
2023/04/02 05:14:56;;;;;;;;;;;;;;;;;;6157046;23;19920;-87
2023/04/02 05:19:59;;;;;;;;;;;;;;;;;;6192691;23;20502;-89
2023/04/02 05:22:28;;;;;;;;;;;;;;;;;;6192027;23;19920;-90
2023/04/02 05:24:58;;;;;;;;;;;;;;;;;;6191780;23;19926;-89
2023/04/02 05:27:32;;;;;;;;;;;;;;;;;;6192411;23;19943;-90
2023/04/02 05:30:00;;;;;;;;;;;;;;;;;;6191932;23;20112;-90
2023/04/02 05:32:28;;;;;;;;;;;;;;;;;;6217964;23;19926;-90
2023/04/02 05:34:56;;;;;;;;;;;;;;;;;;6190997;23;19919;-90
2023/04/02 05:37:24;;;;;;;;;;;;;;;;;;6226858;23;20233;-90
2023/04/02 05:39:53;;;;;;;;;;;;;;;;;;6189754;23;19919;-92
2023/04/02 05:42:23;;;;;;;;;;;;;;;;;;6190923;23;19923;-90
2023/04/02 05:44:56;;;;;;;;;;;;;;;;;;6191591;23;19920;-90
2023/04/02 05:47:24;;;;;;;;;;;;;;;;;;6192576;23;19927;-90
2023/04/02 05:49:52;;;;;;;;;;;;;;;;;;6192761;23;19934;-90
2023/04/02 05:52:20;;;;;;;;;;;;;;;;;;6192677;23;19919;-90
2023/04/02 05:54:49;;;;;;;;;;;;;;;;;;6217263;23;19920;-91
2023/04/02 05:57:17;;;;;;;;;;;;;;;;;;6191243;23;19920;-91
2023/04/02 05:59:47;;;;;;;;;;;;;;;;;;6194818;23;19920;-91
2023/04/02 06:02:17;;;;;;;;;;;;;;;;;;6190931;23;19920;-90
2023/04/02 06:04:46;;;;;;;;;;;;;;;;;;6191180;23;20340;-91
2023/04/02 06:07:15;;;;;;;;;;;;;;;;;;6192653;23;20339;-90
2023/04/02 06:09:51;;;;;;;;;;;;;;;;;;6191182;23;19924;-91
2023/04/02 06:12:26;;;;;;;;;;;;;;;;;;6191865;23;19919;-91
2023/04/02 06:14:56;;;;;;;;;;;;;;;;;;6190832;23;19926;-91
2023/04/02 06:17:27;;;;;;;;;;;;;;;;;;6192937;23;19942;-91
2023/04/02 06:19:56;;;;;;;;;;;;;;;;;;6190995;23;19924;-91
2023/04/02 06:22:33;;;;;;;;;;;;;;;;;;6217359;23;19919;-92
2023/04/02 06:25:03;;;;;;;;;;;;;;;;;;6190855;23;19924;-90
2023/04/02 06:27:39;;;;;;;;;;;;;;;;;;6168727;23;19927;-90
2023/04/02 06:30:14;;;;;;;;;;;;;;;;;;6191957;23;19924;-89
2023/04/02 06:32:41;;;;;;;;;;;;;;;;;;6192239;23;20373;-90
2023/04/02 06:35:12;;;;;;;;;;;;;;;;;;6190031;23;19934;-89
2023/04/02 06:37:41;;;;;;;;;;;;;;;;;;6191972;23;19923;-90
2023/04/02 06:40:23;;;;;;;;;;;;;;;;;;6191277;23;19927;-90
2023/04/02 06:42:58;;;;;;;;;;;;;;;;;;6194667;23;19919;-90
2023/04/02 06:46:03;;;;;;;;;;;;;;;;;;6093595;23;19932;-90
2023/04/02 06:48:37;;;;;;;;;;;;;;;;;;6197312;23;20364;-91
2023/04/02 06:53:47;;;;;;;;;;;;;;;;;;6191029;23;20347;-90
2023/04/02 06:56:21;;;;;;;;;;;;;;;;;;6218374;23;19920;-91
2023/04/02 06:58:48;;;;;;;;;;;;;;;;;;6199476;23;19929;-91
2023/04/02 07:01:23;;;;;;;;;;;;;;;;;;6203107;23;19920;-91
2023/04/02 07:03:53;;;;;;;;;;;;;;;;;;6206351;23;19923;-91
2023/04/02 07:17:38;;;;;;;;;;;;;;;;;;6219011;22;19957;-89
2023/04/02 07:20:10;;;;;;;;;;;;;;;;;;6219264;23;19926;-89
2023/04/02 07:22:37;;;;;;;;;;;;;;;;;;6215562;22;19912;-91
2023/04/02 07:25:06;;;;;;;;;;;;;;;;;;6215034;23;19934;-91
2023/04/02 07:27:34;;;;;;;;;;;;;;;;;;6192997;23;19919;-90
2023/04/02 07:30:03;;;;;;;;;;;;;;;;;;6200039;23;19920;-90
2023/04/02 07:35:15;;;;;;;;;;;;;;;;;;6214843;23;19924;-90
2023/04/02 08:12:04;;;;;;;;;;;;;;;;;;6190302;23;19920;-90
2023/04/02 08:14:39;;;;;;;;;;;;;;;;;;6219294;23;19920;-91
2023/04/02 08:17:08;;;;;;;;;;;;;;;;;;6193690;23;19923;-90
2023/04/02 08:32:10;;;;;;;;;;;;;;;;;;6242509;23;19927;-88
2023/04/02 09:24:26;;;;;;;;;;;;;;;;;;6100025;23;20112;-88
2023/04/02 09:26:53;;;;;;;;;;;;;;;;;;6186193;23;20383;-85
2023/04/02 09:29:31;;;;;;;;;;;;;;;;;;6214242;23;19924;-87
2023/04/02 09:31:59;;;;;;;;;;;;;;;;;;6185889;23;20259;-87
2023/04/02 09:34:27;;;;;;;;;;;;;;;;;;6196718;23;19920;-87
2023/04/02 09:36:54;;;;;;;;;;;;;;;;;;6212275;23;19927;-88
2023/04/02 09:39:22;;;;;;;;;;;;;;;;;;6222045;23;19924;-89
2023/04/02 09:42:01;;;;;;;;;;;;;;;;;;6163781;23;20252;-89
2023/04/02 09:44:30;;;;;;;;;;;;;;;;;;6187536;23;19923;-89
2023/04/02 09:46:58;;;;;;;;;;;;;;;;;;6187498;23;19930;-89
2023/04/02 09:49:26;;;;;;;;;;;;;;;;;;6186322;23;19935;-89
2023/04/02 09:52:06;;;;;;;;;;;;;;;;;;6214386;23;19927;-89
2023/04/02 10:16:07;;;;;;;;;;;;;;;;;;6017553;23;19952;-88
2023/04/02 10:18:38;;;;;;;;;;;;;;;;;;6121072;23;19931;-88
2023/04/02 10:21:08;;;;;;;;;;;;;;;;;;6192401;23;19927;-87
2023/04/02 10:23:35;;;;;;;;;;;;;;;;;;6196963;23;19930;-88
2023/04/02 10:26:07;;;;;;;;;;;;;;;;;;6214237;23;19943;-88
2023/04/02 10:28:41;;;;;;;;;;;;;;;;;;6161287;23;19919;-87
2023/04/02 10:31:10;;;;;;;;;;;;;;;;;;6223085;23;19924;-88
2023/04/02 10:33:37;;;;;;;;;;;;;;;;;;6212044;23;19920;-88
2023/04/02 10:36:06;;;;;;;;;;;;;;;;;;6213642;23;19927;-88
2023/04/02 10:38:37;;;;;;;;;;;;;;;;;;6187162;23;20252;-88
2023/04/02 10:41:06;;;;;;;;;;;;;;;;;;6162249;23;19920;-88
2023/04/02 10:43:44;;;;;;;;;;;;;;;;;;6213534;23;19927;-87
2023/04/02 10:46:14;;;;;;;;;;;;;;;;;;6224283;23;19927;-88
2023/04/02 10:48:44;;;;;;;;;;;;;;;;;;6184365;23;19968;-89
2023/04/02 10:51:12;;;;;;;;;;;;;;;;;;6211182;23;19920;-88
2023/04/02 10:53:42;;;;;;;;;;;;;;;;;;6186222;23;19931;-89
2023/04/02 10:56:10;;;;;;;;;;;;;;;;;;6161647;23;19920;-88
2023/04/02 10:58:42;;;;;;;;;;;;;;;;;;6214074;23;20260;-88
2023/04/02 11:01:16;;;;;;;;;;;;;;;;;;6213981;23;19927;-88
2023/04/02 11:03:45;;;;;;;;;;;;;;;;;;6189413;23;19924;-88
2023/04/02 11:06:16;;;;;;;;;;;;;;;;;;6197452;23;19978;-88
2023/04/02 11:08:49;;;;;;;;;;;;;;;;;;6215496;23;19928;-89
2023/04/02 11:11:21;;;;;;;;;;;;;;;;;;6214147;23;19919;-91
2023/04/02 11:13:50;;;;;;;;;;;;;;;;;;6187152;23;19931;-90
2023/04/02 11:16:17;;;;;;;;;;;;;;;;;;6198395;23;19927;-90
2023/04/02 11:19:06;;;;;;;;;;;;;;;;;;6162202;23;19927;-91
2023/04/02 11:21:39;;;;;;;;;;;;;;;;;;6163240;23;19927;-87
2023/04/02 11:24:06;;;;;;;;;;;;;;;;;;6186924;23;19924;-93
2023/04/02 11:26:37;;;;;;;;;;;;;;;;;;6187765;23;20352;-94
2023/04/02 11:29:16;;;;;;;;;;;;;;;;;;6189110;23;20260;-88
2023/04/02 11:31:43;;;;;;;;;;;;;;;;;;6222950;23;19926;-91
2023/04/02 11:37:08;;;;;;;;;;;;;;;;;;6230298;23;19904;-91
2023/04/02 11:39:45;;;;;;;;;;;;;;;;;;6214171;23;19923;-91
2023/04/02 11:42:23;;;;;;;;;;;;;;;;;;6176081;23;20354;-91
2023/04/02 11:44:53;;;;;;;;;;;;;;;;;;6176151;23;20490;-90
2023/04/02 11:47:28;;;;;;;;;;;;;;;;;;6176914;23;20215;-93
2023/04/02 11:50:00;;;;;;;;;;;;;;;;;;6178383;23;19920;-91
2023/04/02 11:52:32;;;;;;;;;;;;;;;;;;6175013;23;19920;-90
2023/04/02 11:55:00;;;;;;;;;;;;;;;;;;6179610;23;19920;-91
2023/04/02 11:57:34;;;;;;;;;;;;;;;;;;6201001;23;19920;-91
2023/04/02 12:00:07;;;;;;;;;;;;;;;;;;6176877;23;19920;-92
2023/04/02 12:02:42;;;;;;;;;;;;;;;;;;6200285;23;19926;-91
2023/04/02 12:05:13;;;;;;;;;;;;;;;;;;6203039;23;19919;-89
2023/04/02 12:08:04;;;;;;;;;;;;;;;;;;6175862;23;19920;-91
2023/04/02 12:10:46;;;;;;;;;;;;;;;;;;6152885;23;19920;-91
2023/04/02 12:13:19;;;;;;;;;;;;;;;;;;6176868;23;19942;-93
2023/04/02 12:15:47;;;;;;;;;;;;;;;;;;6175284;23;19926;-91
2023/04/02 12:18:20;;;;;;;;;;;;;;;;;;6201272;23;20270;-92
2023/04/02 12:20:48;;;;;;;;;;;;;;;;;;6174365;23;19920;-90
2023/04/02 12:23:17;;;;;;;;;;;;;;;;;;6175212;23;19935;-92
2023/04/02 12:25:45;;;;;;;;;;;;;;;;;;6170076;23;19926;-89
2023/04/02 12:28:19;;;;;;;;;;;;;;;;;;6198270;23;19949;-90
2023/04/02 12:30:48;;;;;;;;;;;;;;;;;;6173441;23;20255;-89
2023/04/02 12:33:17;;;;;;;;;;;;;;;;;;6173791;23;20677;-90
2023/04/02 12:35:50;;;;;;;;;;;;;;;;;;6176209;23;19920;-88
2023/04/02 12:41:18;;;;;;;;;;;;;;;;;;6202457;23;19930;-90
2023/04/02 12:43:46;;;;;;;;;;;;;;;;;;6177289;23;20247;-89
2023/04/02 12:46:17;;;;;;;;;;;;;;;;;;6179281;23;19924;-90
2023/04/02 12:48:44;;;;;;;;;;;;;;;;;;6181026;23;19908;-91
2023/04/02 12:51:17;;;;;;;;;;;;;;;;;;6157634;23;19927;-93
2023/04/02 12:53:47;;;;;;;;;;;;;;;;;;6181831;23;19927;-89
2023/04/02 12:56:21;;;;;;;;;;;;;;;;;;6178039;23;20235;-92
2023/04/02 12:58:52;;;;;;;;;;;;;;;;;;6176502;23;19923;-91
2023/04/02 13:01:32;;;;;;;;;;;;;;;;;;6179095;23;19920;-91
2023/04/02 13:04:03;;;;;;;;;;;;;;;;;;6180943;23;19924;-91
2023/04/02 13:06:31;;;;;;;;;;;;;;;;;;6180139;23;19920;-91
2023/04/02 13:12:35;;;;;;;;;;;;;;;;;;6231709;23;19926;-92
2023/04/02 13:15:03;;;;;;;;;;;;;;;;;;6175869;23;19926;-91
2023/04/02 13:17:39;;;;;;;;;;;;;;;;;;6177812;23;19920;-90
2023/04/02 13:20:29;;;;;;;;;;;;;;;;;;6175822;23;19935;-91
2023/04/02 13:22:57;;;;;;;;;;;;;;;;;;6178090;23;19920;-92
2023/04/02 13:25:30;;;;;;;;;;;;;;;;;;6199152;23;19927;-91
2023/04/02 13:27:57;;;;;;;;;;;;;;;;;;6210455;23;19924;-92
2023/04/02 13:30:26;;;;;;;;;;;;;;;;;;6201369;23;20244;-93
2023/04/02 13:32:57;;;;;;;;;;;;;;;;;;6175968;23;19951;-92
2023/04/02 13:35:25;;;;;;;;;;;;;;;;;;6175938;23;19920;-93
2023/04/02 13:37:53;;;;;;;;;;;;;;;;;;6172168;23;19926;-89
2023/04/02 13:40:22;;;;;;;;;;;;;;;;;;6171614;23;19924;-92
2023/04/02 13:42:49;;;;;;;;;;;;;;;;;;6170565;23;19964;-90
2023/04/02 13:45:19;;;;;;;;;;;;;;;;;;6168564;23;19920;-91
2023/04/02 13:47:47;;;;;;;;;;;;;;;;;;6193310;23;20343;-89
2023/04/02 13:50:19;;;;;;;;;;;;;;;;;;6170800;23;19926;-91
2023/04/02 13:52:46;;;;;;;;;;;;;;;;;;6172917;23;19926;-90
2023/04/02 13:55:14;;;;;;;;;;;;;;;;;;6171342;23;19920;-91
2023/04/02 13:57:41;;;;;;;;;;;;;;;;;;6168847;23;19920;-88
2023/04/02 14:00:09;;;;;;;;;;;;;;;;;;6169670;23;19924;-91
2023/04/02 14:02:42;;;;;;;;;;;;;;;;;;6171683;23;19920;-91
2023/04/02 14:05:12;;;;;;;;;;;;;;;;;;6197929;23;19927;-90
2023/04/02 14:07:47;;;;;;;;;;;;;;;;;;6171635;23;20271;-89
2023/04/02 14:10:18;;;;;;;;;;;;;;;;;;6173508;23;19920;-92
2023/04/02 14:12:48;;;;;;;;;;;;;;;;;;6173902;23;19920;-91
2023/04/02 14:15:29;;;;;;;;;;;;;;;;;;6172809;23;19926;-92
2023/04/02 14:18:02;;;;;;;;;;;;;;;;;;6170341;23;19920;-92
2023/04/02 14:20:32;;;;;;;;;;;;;;;;;;6170627;23;19968;-89
2023/04/02 14:23:17;;;;;;;;;;;;;;;;;;6195669;23;19926;-93
2023/04/02 14:25:53;;;;;;;;;;;;;;;;;;6172980;23;19920;-91
2023/04/02 14:28:25;;;;;;;;;;;;;;;;;;6171603;23;20348;-89
2023/04/02 14:30:54;;;;;;;;;;;;;;;;;;6167889;23;20370;-91
2023/04/02 14:33:23;;;;;;;;;;;;;;;;;;6168355;23;19924;-92
2023/04/02 14:35:52;;;;;;;;;;;;;;;;;;6167450;23;19924;-90
2023/04/02 14:38:20;;;;;;;;;;;;;;;;;;6192697;23;19919;-90
2023/04/02 14:40:52;;;;;;;;;;;;;;;;;;6193025;23;19924;-92
2023/04/02 14:43:22;;;;;;;;;;;;;;;;;;6201602;23;20335;-89
2023/04/02 14:45:57;;;;;;;;;;;;;;;;;;6166794;23;19920;-90
2023/04/02 14:48:29;;;;;;;;;;;;;;;;;;6141535;23;19920;-88
2023/04/02 14:51:01;;;;;;;;;;;;;;;;;;6166629;23;19935;-89
2023/04/02 14:53:30;;;;;;;;;;;;;;;;;;6166338;23;19919;-89
2023/04/02 14:55:59;;;;;;;;;;;;;;;;;;6166675;23;19920;-90
2023/04/02 14:58:27;;;;;;;;;;;;;;;;;;6202286;23;19920;-89
2023/04/02 15:01:00;;;;;;;;;;;;;;;;;;6169113;23;19926;-90
2023/04/02 15:03:32;;;;;;;;;;;;;;;;;;6167930;23;19920;-89
2023/04/02 15:06:00;;;;;;;;;;;;;;;;;;6167846;23;19920;-89
2023/04/02 15:08:27;;;;;;;;;;;;;;;;;;6166688;23;19920;-88
2023/04/02 15:10:56;;;;;;;;;;;;;;;;;;6167425;23;20366;-91
2023/04/02 15:13:28;;;;;;;;;;;;;;;;;;6165298;23;19923;-90
2023/04/02 15:15:57;;;;;;;;;;;;;;;;;;6166271;23;19920;-88
2023/04/02 15:18:25;;;;;;;;;;;;;;;;;;6166794;23;19920;-90
2023/04/02 15:20:55;;;;;;;;;;;;;;;;;;6168131;23;20358;-90
2023/04/02 15:23:29;;;;;;;;;;;;;;;;;;6193669;23;19920;-92
2023/04/02 15:26:00;;;;;;;;;;;;;;;;;;6204332;23;19920;-90
2023/04/02 15:28:29;;;;;;;;;;;;;;;;;;6145951;23;19920;-89
2023/04/02 15:31:00;;;;;;;;;;;;;;;;;;6172303;23;20272;-90
2023/04/02 15:33:53;;;;;;;;;;;;;;;;;;6194323;23;19920;-91
2023/04/02 15:36:25;;;;;;;;;;;;;;;;;;6112311;23;19927;-91
2023/04/02 15:38:54;;;;;;;;;;;;;;;;;;6171580;23;19931;-89
2023/04/02 15:41:25;;;;;;;;;;;;;;;;;;6169826;23;20342;-89
2023/04/02 15:43:56;;;;;;;;;;;;;;;;;;6193384;23;20282;-91
2023/04/02 15:46:27;;;;;;;;;;;;;;;;;;6167961;23;19920;-91
2023/04/02 15:49:12;;;;;;;;;;;;;;;;;;6168229;23;19927;-89
2023/04/02 15:51:44;;;;;;;;;;;;;;;;;;6143829;23;19920;-91
2023/04/02 15:54:19;;;;;;;;;;;;;;;;;;6165977;23;19931;-90
2023/04/02 15:57:02;;;;;;;;;;;;;;;;;;6166677;23;19934;-88
2023/04/02 15:59:39;;;;;;;;;;;;;;;;;;6232238;22;19919;-90
2023/04/02 16:24:17;;;;;;;;;;;;;;;;;;6212513;23;20340;-91
2023/04/02 16:26:47;;;;;;;;;;;;;;;;;;6162255;23;19927;-91
2023/04/02 16:29:19;;;;;;;;;;;;;;;;;;6163374;23;19920;-92
2023/04/02 16:31:47;;;;;;;;;;;;;;;;;;6225838;23;19927;-90
2023/04/02 16:34:15;;;;;;;;;;;;;;;;;;6199736;23;19920;-88
2023/04/02 16:36:44;;;;;;;;;;;;;;;;;;6164094;23;19920;-90
2023/04/02 16:39:13;;;;;;;;;;;;;;;;;;6218004;23;19919;-91
2023/04/02 16:41:45;;;;;;;;;;;;;;;;;;6189109;23;19919;-91
2023/04/02 16:44:17;;;;;;;;;;;;;;;;;;6225179;23;19927;-90
2023/04/02 16:46:47;;;;;;;;;;;;;;;;;;6199512;23;19920;-91
2023/04/02 16:49:17;;;;;;;;;;;;;;;;;;6164013;23;19920;-91
2023/04/02 16:51:45;;;;;;;;;;;;;;;;;;6215920;23;19931;-90
2023/04/02 16:54:13;;;;;;;;;;;;;;;;;;6189198;23;19920;-90
2023/04/02 16:56:45;;;;;;;;;;;;;;;;;;6188308;23;19920;-91
2023/04/02 16:59:14;;;;;;;;;;;;;;;;;;6188644;23;20328;-91
2023/04/02 17:01:43;;;;;;;;;;;;;;;;;;6215127;23;19920;-91
2023/04/02 17:04:28;;;;;;;;;;;;;;;;;;6215568;23;19920;-91
2023/04/02 17:06:56;;;;;;;;;;;;;;;;;;6187646;23;19927;-91
2023/04/02 17:09:25;;;;;;;;;;;;;;;;;;6215470;23;19919;-89
2023/04/02 17:11:55;;;;;;;;;;;;;;;;;;6214385;23;20538;-90
2023/04/02 17:14:24;;;;;;;;;;;;;;;;;;6198570;23;19927;-90
2023/04/02 17:16:51;;;;;;;;;;;;;;;;;;6187689;23;20332;-90
2023/04/02 17:19:19;;;;;;;;;;;;;;;;;;6188755;23;20360;-90
2023/04/02 17:21:48;;;;;;;;;;;;;;;;;;6213989;23;19920;-89
2023/04/02 17:24:18;;;;;;;;;;;;;;;;;;6214358;23;19920;-90
2023/04/02 17:26:46;;;;;;;;;;;;;;;;;;6214889;23;19920;-91
2023/04/02 17:29:15;;;;;;;;;;;;;;;;;;6188280;23;19939;-91
2023/04/02 17:31:42;;;;;;;;;;;;;;;;;;6225422;23;19942;-91
2023/04/02 17:34:10;;;;;;;;;;;;;;;;;;6215636;23;19935;-91
2023/04/02 17:36:39;;;;;;;;;;;;;;;;;;6216697;23;19924;-92
2023/04/02 17:39:08;;;;;;;;;;;;;;;;;;6216396;23;19927;-91
2023/04/02 17:41:37;;;;;;;;;;;;;;;;;;6189075;23;19924;-91
2023/04/02 17:44:06;;;;;;;;;;;;;;;;;;6228218;23;19920;-90
2023/04/02 17:46:35;;;;;;;;;;;;;;;;;;6218898;23;19920;-92
2023/04/02 17:49:04;;;;;;;;;;;;;;;;;;6218098;23;19920;-91
2023/04/02 17:51:35;;;;;;;;;;;;;;;;;;6190985;23;19942;-91
2023/04/02 17:54:10;;;;;;;;;;;;;;;;;;6228937;23;19920;-91
2023/04/02 17:56:55;;;;;;;;;;;;;;;;;;6230966;23;20440;-91
2023/04/02 18:30:26;;;;;;;;;;;;;;;;;;6252417;23;19920;-91
2023/04/02 18:33:02;;;;;;;;;;;;;;;;;;6225429;23;19919;-92
2023/04/02 18:35:31;;;;;;;;;;;;;;;;;;6237844;23;19920;-92
2023/04/02 18:38:06;;;;;;;;;;;;;;;;;;6221437;23;19919;-93
2023/04/02 18:40:39;;;;;;;;;;;;;;;;;;6262448;23;19919;-91
2023/04/02 18:43:08;;;;;;;;;;;;;;;;;;6261000;23;19920;-91
2023/04/02 18:45:43;;;;;;;;;;;;;;;;;;6256275;23;19930;-92
2023/04/02 18:48:14;;;;;;;;;;;;;;;;;;6257929;23;19927;-91
2023/04/02 18:50:45;;;;;;;;;;;;;;;;;;6261720;23;19920;-92
2023/04/02 18:53:13;;;;;;;;;;;;;;;;;;6258295;23;19948;-92
2023/04/02 18:55:41;;;;;;;;;;;;;;;;;;6255053;23;19926;-91
2023/04/02 18:58:10;;;;;;;;;;;;;;;;;;6221821;23;19920;-92
2023/04/02 19:00:39;;;;;;;;;;;;;;;;;;6261926;23;19924;-91
2023/04/02 19:03:07;;;;;;;;;;;;;;;;;;6245800;23;19919;-91
2023/04/02 19:05:39;;;;;;;;;;;;;;;;;;6258171;23;19920;-93
2023/04/02 19:08:10;;;;;;;;;;;;;;;;;;6255209;23;19920;-93
2023/04/02 19:10:38;;;;;;;;;;;;;;;;;;6222793;23;20255;-93
2023/04/02 19:13:10;;;;;;;;;;;;;;;;;;6222525;23;20358;-93
2023/04/02 19:15:41;;;;;;;;;;;;;;;;;;6256808;23;19919;-93
2023/04/02 19:18:10;;;;;;;;;;;;;;;;;;6253004;23;19931;-89
2023/04/02 19:20:41;;;;;;;;;;;;;;;;;;6257414;23;19919;-93
2023/04/02 19:23:13;;;;;;;;;;;;;;;;;;6246030;23;19931;-93
2023/04/02 19:25:48;;;;;;;;;;;;;;;;;;6256204;23;19919;-93
2023/04/02 19:28:16;;;;;;;;;;;;;;;;;;6195081;23;19926;-92
2023/04/02 19:30:56;;;;;;;;;;;;;;;;;;6258324;23;19920;-91
2023/04/02 19:33:26;;;;;;;;;;;;;;;;;;6258832;23;19943;-92
2023/04/02 19:35:55;;;;;;;;;;;;;;;;;;6219694;23;20256;-91
2023/04/02 19:38:27;;;;;;;;;;;;;;;;;;6247067;23;19926;-92
2023/04/02 19:40:54;;;;;;;;;;;;;;;;;;6257115;23;19919;-92
2023/04/02 19:43:22;;;;;;;;;;;;;;;;;;6246555;23;19943;-91
2023/04/02 19:45:52;;;;;;;;;;;;;;;;;;6247711;23;19931;-92
2023/04/02 19:48:21;;;;;;;;;;;;;;;;;;6219701;23;19923;-91
2023/04/02 19:50:48;;;;;;;;;;;;;;;;;;6256031;23;20255;-92
2023/04/02 19:53:15;;;;;;;;;;;;;;;;;;6231463;23;19942;-92
2023/04/02 19:55:43;;;;;;;;;;;;;;;;;;6257420;23;19923;-91
2023/04/02 19:58:11;;;;;;;;;;;;;;;;;;6252775;23;20260;-91
2023/04/02 20:00:38;;;;;;;;;;;;;;;;;;6221037;23;19939;-91
2023/04/02 20:03:05;;;;;;;;;;;;;;;;;;6248341;23;19925;-91
2023/04/02 20:05:34;;;;;;;;;;;;;;;;;;6221284;23;19943;-91
2023/04/02 20:08:01;;;;;;;;;;;;;;;;;;6245460;23;19920;-86
2023/04/02 20:10:28;;;;;;;;;;;;;;;;;;6247105;23;19920;-91
2023/04/02 20:12:55;;;;;;;;;;;;;;;;;;6246295;23;19942;-91
2023/04/02 20:15:22;;;;;;;;;;;;;;;;;;6219282;23;19919;-92
2023/04/02 20:17:50;;;;;;;;;;;;;;;;;;6245774;23;19927;-92
2023/04/02 20:20:17;;;;;;;;;;;;;;;;;;6256620;23;19943;-91
2023/04/02 20:22:45;;;;;;;;;;;;;;;;;;6219088;23;19926;-92
2023/04/02 20:25:13;;;;;;;;;;;;;;;;;;6256459;23;20340;-92
2023/04/02 20:27:40;;;;;;;;;;;;;;;;;;6245394;23;19931;-91
2023/04/02 20:30:08;;;;;;;;;;;;;;;;;;6245073;23;19919;-91
2023/04/02 20:32:38;;;;;;;;;;;;;;;;;;6219447;23;19919;-92